Time;durP1;ratioP1;P1;durP2;ratioP2;P2;SDS_P1;SDS_P2;PMS_P1;PMS_P2;Temp;Humidity;BMP_temperature;BMP_pressure;BME280_temperature;BME280_humidity;BME280_pressure;Samples;Min_cycle;Max_cycle;Signal;HPM_P1;HPM_P2
2021/07/02 00:00:37;;;;;;;3.10;2.47;;;;;;;18.28;62.72;99739.27;154057;1101;103224;-81
2021/07/02 00:03:42;;;;;;;3.47;2.77;;;;;;;18.20;62.56;99742.22;154070;1101;103248;-82
2021/07/02 00:06:47;;;;;;;3.17;2.80;;;;;;;18.15;63.24;99742.88;154024;1101;103206;-78
2021/07/02 00:09:52;;;;;;;3.45;2.55;;;;;;;18.03;62.91;99733.78;153986;1101;103145;-76
2021/07/02 00:12:58;;;;;;;3.50;2.40;;;;;;;17.92;65.12;99743.39;154137;1096;103106;-81
2021/07/02 00:16:03;;;;;;;3.20;2.85;;;;;;;17.83;63.39;99734.66;154073;1101;103151;-81
2021/07/02 00:19:08;;;;;;;3.85;2.70;;;;;;;17.79;64.02;99746.93;154106;1101;103231;-80
2021/07/02 00:22:13;;;;;;;2.43;2.23;;;;;;;17.69;64.46;99737.61;154150;1101;103578;-85
2021/07/02 00:25:19;;;;;;;2.33;2.13;;;;;;;17.60;65.21;99735.16;154119;1101;103227;-83
2021/07/02 00:28:24;;;;;;;3.23;2.30;;;;;;;17.52;65.20;99743.48;154067;1097;103206;-82
2021/07/02 00:31:29;;;;;;;3.33;2.10;;;;;;;17.49;65.03;99743.07;154462;1095;103811;-81
2021/07/02 00:34:34;;;;;;;3.50;2.00;;;;;;;17.43;67.17;99736.65;154067;1101;103237;-83
2021/07/02 00:37:40;;;;;;;2.50;2.15;;;;;;;17.37;64.87;99740.20;154074;1101;103233;-81
2021/07/02 00:40:45;;;;;;;2.63;2.40;;;;;;;17.35;64.40;99743.09;153992;1101;103250;-85
2021/07/02 00:43:55;;;;;;;2.40;1.97;;;;;;;17.32;65.16;99754.32;154286;1097;103320;-85
2021/07/02 00:47:01;;;;;;;3.15;1.88;;;;;;;17.30;64.92;99747.45;154235;1101;103178;-85
2021/07/02 00:50:07;;;;;;;2.10;1.90;;;;;;;17.29;66.39;99752.03;155726;1101;103182;-83
2021/07/02 00:53:14;;;;;;;2.67;2.30;;;;;;;17.23;66.36;99748.30;156090;1101;103225;-85
2021/07/02 00:56:21;;;;;;;2.70;2.10;;;;;;;17.18;65.19;99745.39;155455;1095;103025;-82
2021/07/02 00:59:28;;;;;;;3.78;2.40;;;;;;;17.15;65.86;99751.22;154004;1101;103126;-82
2021/07/02 01:02:35;;;;;;;2.93;2.63;;;;;;;17.08;65.67;99747.69;154093;1096;103203;-82
2021/07/02 01:05:40;;;;;;;3.83;2.23;;;;;;;17.01;65.69;99752.24;154057;1101;103264;-83
2021/07/02 01:08:46;;;;;;;3.00;2.30;;;;;;;16.99;65.91;99755.14;155136;1096;103206;-81
2021/07/02 01:11:52;;;;;;;2.40;2.20;;;;;;;17.03;65.96;99763.64;154356;1101;103199;-83
2021/07/02 01:14:58;;;;;;;2.70;2.05;;;;;;;17.11;65.45;99757.22;154013;1101;103287;-85
2021/07/02 01:18:07;;;;;;;3.90;2.17;;;;;;;17.16;65.76;99760.95;154502;1096;103203;-85
2021/07/02 01:21:15;;;;;;;2.50;2.28;;;;;;;17.21;65.45;99763.86;154286;1096;103282;-85
2021/07/02 01:24:22;;;;;;;3.43;2.27;;;;;;;17.16;65.62;99754.73;154141;1096;103118;-77
2021/07/02 01:27:28;;;;;;;2.75;2.00;;;;;;;17.10;65.82;99764.48;154051;1096;103109;-81
2021/07/02 01:30:36;;;;;;;2.43;2.13;;;;;;;17.13;65.85;99765.92;154495;1101;103117;-80
2021/07/02 01:33:41;;;;;;;2.88;2.30;;;;;;;17.16;65.77;99758.25;154065;1101;103148;-80
2021/07/02 01:36:47;;;;;;;2.40;2.20;;;;;;;17.16;65.90;99744.77;154028;1101;103263;-77
2021/07/02 01:39:54;;;;;;;2.70;1.90;;;;;;;17.25;65.64;99743.52;154003;1096;103152;-77
2021/07/02 01:43:02;;;;;;;2.10;1.90;;;;;;;17.33;65.92;99741.66;153983;1101;103195;-82
2021/07/02 01:46:07;;;;;;;2.53;2.13;;;;;;;17.36;65.43;99743.91;154157;1101;103247;-82
2021/07/02 01:49:13;;;;;;;2.80;1.90;;;;;;;17.36;65.94;99738.52;153987;1095;103114;-76
2021/07/02 01:52:19;;;;;;;3.07;1.90;;;;;;;17.60;66.29;99745.95;153975;1095;103041;-75
2021/07/02 01:55:26;;;;;;;2.63;1.98;;;;;;;17.87;65.83;99736.98;153961;1095;103120;-75
2021/07/02 01:58:35;;;;;;;2.85;1.80;;;;;;;17.70;65.74;99734.70;153993;1101;103272;-76
2021/07/02 02:01:52;;;;;;;2.63;2.15;;;;;;;17.78;65.87;99728.25;153954;1101;103150;-76
2021/07/02 02:04:58;;;;;;;2.67;2.10;;;;;;;17.70;65.87;99744.68;153977;1095;103118;-74
2021/07/02 02:08:05;;;;;;;4.60;2.38;;;;;;;17.57;65.90;99740.99;153979;1096;103259;-73
2021/07/02 02:11:12;;;;;;;2.58;2.25;;;;;;;17.51;65.75;99740.98;154061;1096;103200;-75
2021/07/02 02:14:21;;;;;;;3.80;2.40;;;;;;;17.40;66.26;99739.78;153970;1101;103128;-74
2021/07/02 02:17:27;;;;;;;2.57;1.77;;;;;;;17.41;66.34;99746.82;154003;1101;103212;-73
2021/07/02 02:20:33;;;;;;;2.00;1.80;;;;;;;17.63;66.23;99745.53;153973;1096;103199;-76
2021/07/02 02:23:39;;;;;;;2.63;1.85;;;;;;;17.82;65.88;99754.61;153955;1097;103270;-75
2021/07/02 02:26:45;;;;;;;2.93;1.80;;;;;;;18.08;65.88;99752.05;154009;1096;103220;-75
2021/07/02 02:29:51;;;;;;;2.00;1.80;;;;;;;18.35;65.81;99756.27;153973;1096;103487;-75
2021/07/02 02:32:57;;;;;;;2.10;1.90;;;;;;;18.57;65.58;99753.22;153924;1101;103193;-74
2021/07/02 02:36:06;;;;;;;2.30;1.80;;;;;;;18.81;65.16;99760.58;153947;1101;103121;-75
2021/07/02 02:39:12;;;;;;;2.95;1.90;;;;;;;18.92;64.92;99759.05;154047;1101;103271;-74
2021/07/02 02:42:17;;;;;;;2.28;2.08;;;;;;;19.07;64.85;99755.18;154006;1095;103200;-74
2021/07/02 02:45:22;;;;;;;2.18;1.93;;;;;;;19.14;64.51;99759.48;153956;1101;103709;-74
2021/07/02 02:48:28;;;;;;;4.03;2.60;;;;;;;19.07;64.51;99758.70;153953;1095;103198;-74
2021/07/02 02:51:33;;;;;;;2.35;2.00;;;;;;;19.15;64.75;99754.89;153931;1096;103294;-73
2021/07/02 02:54:38;;;;;;;2.50;2.23;;;;;;;19.30;63.94;99755.38;153970;1095;103390;-76
2021/07/02 02:57:43;;;;;;;2.30;2.00;;;;;;;19.17;64.17;99750.12;153964;1097;103147;-76
2021/07/02 03:00:49;;;;;;;4.25;2.45;;;;;;;19.26;64.39;99748.77;153945;1096;103221;-76
2021/07/02 03:03:54;;;;;;;2.30;1.90;;;;;;;19.40;64.37;99744.07;153917;1101;103150;-76
2021/07/02 03:06:59;;;;;;;3.17;2.13;;;;;;;19.46;63.91;99743.17;154073;1095;103193;-75
2021/07/02 03:10:05;;;;;;;3.10;1.87;;;;;;;19.49;64.38;99741.89;154000;1101;103199;-75
2021/07/02 03:13:12;;;;;;;2.80;1.57;;;;;;;19.60;64.01;99738.44;154051;1096;103134;-77
2021/07/02 03:16:18;;;;;;;3.80;1.90;;;;;;;19.70;63.62;99735.20;154198;1101;103198;-74
2021/07/02 03:19:26;;;;;;;2.93;2.00;;;;;;;19.77;63.49;99738.70;154181;1101;103608;-74
2021/07/02 03:22:34;;;;;;;3.40;2.43;;;;;;;19.65;63.49;99741.31;154196;1101;103160;-76
2021/07/02 03:25:39;;;;;;;2.13;1.70;;;;;;;19.52;63.55;99742.27;154213;1096;103311;-76
2021/07/02 03:28:45;;;;;;;2.17;1.70;;;;;;;19.36;63.53;99754.51;154116;1097;103110;-75
2021/07/02 03:31:50;;;;;;;3.23;1.97;;;;;;;19.47;63.71;99755.63;153963;1101;103160;-77
2021/07/02 03:34:56;;;;;;;2.93;2.50;;;;;;;19.78;63.55;99767.41;153990;1097;103234;-76
2021/07/02 03:38:03;;;;;;;4.37;3.30;;;;;;;19.99;62.79;99761.53;153961;1096;103210;-76
2021/07/02 03:41:09;;;;;;;2.77;2.57;;;;;;;19.97;62.88;99771.77;153937;1095;103593;-78
2021/07/02 03:44:14;;;;;;;5.00;3.30;;;;;;;19.91;62.54;99769.97;153941;1101;103162;-78
2021/07/02 03:47:20;;;;;;;4.53;3.33;;;;;;;19.90;62.82;99776.45;153913;1101;103140;-77
2021/07/02 03:50:25;;;;;;;6.30;2.80;;;;;;;20.03;62.93;99777.34;153950;1101;103203;-77
2021/07/02 03:53:31;;;;;;;5.08;3.43;;;;;;;20.15;62.55;99775.52;153984;1101;103082;-76
2021/07/02 03:56:36;;;;;;;2.80;2.60;;;;;;;20.16;62.37;99769.05;154025;1101;103276;-77
2021/07/02 03:59:42;;;;;;;3.20;2.90;;;;;;;20.12;62.58;99775.98;153942;1101;103203;-76
2021/07/02 04:02:47;;;;;;;3.70;3.13;;;;;;;20.09;62.41;99771.02;153966;1096;103134;-76
2021/07/02 04:05:52;;;;;;;4.30;3.90;;;;;;;19.91;61.61;99767.27;153903;1101;103183;-75
2021/07/02 04:08:57;;;;;;;3.80;3.48;;;;;;;19.62;62.53;99760.69;153961;1101;103150;-75
2021/07/02 04:12:04;;;;;;;5.57;5.07;;;;;;;19.44;62.06;99761.52;153955;1101;103226;-75
2021/07/02 04:15:11;;;;;;;3.63;3.18;;;;;;;19.16;62.86;99762.79;154035;1101;103206;-74
2021/07/02 04:18:16;;;;;;;6.30;4.77;;;;;;;19.00;62.59;99766.88;153965;1097;103131;-75
2021/07/02 04:21:21;;;;;;;6.58;5.78;;;;;;;18.80;62.90;99772.45;153937;1101;103560;-75
2021/07/02 04:24:28;;;;;;;5.30;4.77;;;;;;;18.85;63.10;99773.67;153982;1101;103145;-76
2021/07/02 04:27:34;;;;;;;6.83;5.50;;;;;;;18.60;63.37;99767.13;153986;1101;103178;-79
2021/07/02 04:30:39;;;;;;;6.15;5.55;;;;;;;18.39;63.16;99764.77;153981;1101;103147;-80
2021/07/02 04:33:44;;;;;;;6.28;5.68;;;;;;;18.50;63.44;99774.08;154105;1101;103192;-81
2021/07/02 04:36:49;;;;;;;6.40;5.20;;;;;;;18.26;63.56;99776.46;153945;1095;103203;-80
2021/07/02 04:39:54;;;;;;;6.40;5.80;;;;;;;18.11;63.81;99773.20;153976;1096;103550;-81
2021/07/02 04:42:59;;;;;;;5.68;5.18;;;;;;;18.09;63.53;99783.39;153954;1101;103216;-80
2021/07/02 04:46:04;;;;;;;5.67;5.17;;;;;;;18.04;63.74;99774.06;154671;1101;103120;-79
2021/07/02 04:49:09;;;;;;;5.43;4.07;;;;;;;18.04;63.93;99774.06;153956;1096;103158;-85
2021/07/02 04:52:14;;;;;;;5.68;5.08;;;;;;;18.12;64.19;99781.09;154215;1101;103132;-83
2021/07/02 04:55:20;;;;;;;6.47;5.80;;;;;;;18.15;64.08;99777.13;154098;1101;103198;-84
2021/07/02 04:58:24;;;;;;;6.10;5.50;;;;;;;18.02;63.97;99778.86;154038;1096;103254;-81
2021/07/02 05:01:30;;;;;;;5.55;4.95;;;;;;;17.84;64.26;99768.75;153988;1096;103107;-81
2021/07/02 05:04:35;;;;;;;6.53;5.90;;;;;;;17.77;64.06;99783.27;153968;1101;103234;-80
2021/07/02 05:07:40;;;;;;;6.00;5.40;;;;;;;17.86;64.34;99787.44;153916;1101;103174;-81
2021/07/02 05:10:45;;;;;;;6.60;5.93;;;;;;;18.00;64.22;99780.13;153970;1101;103282;-80
2021/07/02 05:13:50;;;;;;;6.23;5.20;;;;;;;18.06;64.22;99779.26;154028;1101;103300;-81
2021/07/02 05:16:55;;;;;;;4.50;4.10;;;;;;;18.15;63.93;99790.63;153966;1101;103198;-80
2021/07/02 05:20:00;;;;;;;5.50;3.70;;;;;;;18.35;64.32;99791.38;154057;1096;103206;-76
2021/07/02 05:23:05;;;;;;;5.73;4.73;;;;;;;18.29;64.01;99788.73;153928;1096;103176;-77
2021/07/02 05:26:12;;;;;;;5.05;4.58;;;;;;;18.31;64.09;99783.94;153974;1101;103131;-76
2021/07/02 05:29:18;;;;;;;4.80;3.88;;;;;;;18.62;64.22;99794.77;153991;1097;103238;-77
2021/07/02 05:32:22;;;;;;;6.77;5.70;;;;;;;18.58;63.50;99792.72;153962;1101;103135;-77
2021/07/02 05:35:27;;;;;;;6.60;6.00;;;;;;;18.35;63.91;99804.88;153934;1101;103560;-78
2021/07/02 05:38:32;;;;;;;6.90;6.20;;;;;;;18.23;64.41;99804.73;153918;1101;103142;-79
2021/07/02 05:41:37;;;;;;;6.87;6.07;;;;;;;18.02;64.52;99805.03;153934;1097;103110;-79
2021/07/02 05:44:42;;;;;;;6.95;6.25;;;;;;;18.14;64.71;99805.19;153941;1101;103212;-78
2021/07/02 05:47:49;;;;;;;8.15;6.40;;;;;;;18.11;64.65;99802.91;154030;1101;103202;-80
2021/07/02 05:50:54;;;;;;;7.75;6.95;;;;;;;18.31;64.94;99806.36;153998;1096;103194;-79
2021/07/02 05:53:59;;;;;;;7.80;7.00;;;;;;;18.25;64.79;99799.13;154020;1096;103110;-83
2021/07/02 05:57:05;;;;;;;7.35;6.65;;;;;;;18.26;64.88;99800.77;154290;1101;103138;-83
2021/07/02 06:00:12;;;;;;;8.63;7.77;;;;;;;18.48;64.55;99806.70;154175;1096;103117;-82
2021/07/02 06:03:17;;;;;;;8.28;7.48;;;;;;;18.53;64.32;99806.04;154047;1101;103211;-79
2021/07/02 06:06:23;;;;;;;9.80;8.90;;;;;;;18.66;64.22;99814.08;154019;1097;103131;-81
2021/07/02 06:09:29;;;;;;;10.03;9.03;;;;;;;18.63;64.25;99812.64;153961;1101;103134;-77
2021/07/02 06:12:34;;;;;;;10.58;9.48;;;;;;;18.53;64.29;99814.15;154180;1096;103557;-78
2021/07/02 06:15:39;;;;;;;10.30;9.20;;;;;;;18.40;64.48;99810.48;154001;1101;103296;-78
2021/07/02 06:18:45;;;;;;;9.83;8.68;;;;;;;18.38;64.56;99814.42;153970;1101;103125;-79
2021/07/02 06:21:50;;;;;;;8.77;7.87;;;;;;;18.47;64.87;99804.21;154198;1101;103266;-81
2021/07/02 06:24:56;;;;;;;10.28;9.10;;;;;;;18.56;64.67;99809.14;154019;1101;103473;-80
2021/07/02 06:28:01;;;;;;;10.53;9.38;;;;;;;18.64;64.47;99808.88;154080;1101;103139;-81
2021/07/02 06:31:06;;;;;;;11.30;10.20;;;;;;;18.63;64.28;99811.83;154187;1101;103263;-78
2021/07/02 06:34:11;;;;;;;11.40;10.30;;;;;;;18.66;64.56;99814.08;153961;1097;103200;-78
2021/07/02 06:37:17;;;;;;;11.40;10.27;;;;;;;18.53;64.59;99825.78;153931;1101;103128;-79
2021/07/02 06:40:22;;;;;;;11.23;10.13;;;;;;;18.47;64.74;99820.42;154187;1096;103170;-79
2021/07/02 06:43:27;;;;;;;9.43;8.50;;;;;;;18.55;64.67;99830.97;154064;1101;103221;-80
2021/07/02 06:46:33;;;;;;;9.07;8.17;;;;;;;18.61;64.68;99821.99;154165;1097;103205;-77
2021/07/02 06:49:39;;;;;;;13.15;9.03;;;;;;;18.88;64.79;99819.16;154091;1101;103220;-79
2021/07/02 06:52:45;;;;;;;9.80;8.47;;;;;;;19.13;64.11;99821.90;153991;1096;103198;-77
2021/07/02 06:55:51;;;;;;;9.57;8.57;;;;;;;19.17;64.09;99813.14;154012;1096;103199;-78
2021/07/02 06:58:56;;;;;;;9.18;8.35;;;;;;;19.13;64.32;99820.05;153998;1096;103119;-78
2021/07/02 07:02:02;;;;;;;8.98;8.08;;;;;;;19.16;63.94;99818.77;153953;1097;103222;-78
2021/07/02 07:05:09;;;;;;;11.40;8.13;;;;;;;19.12;64.07;99812.97;153949;1101;103224;-78
2021/07/02 07:08:14;;;;;;;9.33;8.35;;;;;;;19.21;64.03;99810.83;153968;1101;104641;-79
2021/07/02 07:11:19;;;;;;;8.80;7.90;;;;;;;19.12;63.94;99799.44;154057;1101;103202;-78
2021/07/02 07:14:24;;;;;;;8.90;8.00;;;;;;;19.09;64.08;99797.20;153994;1096;103199;-78
2021/07/02 07:17:29;;;;;;;8.70;7.83;;;;;;;19.07;64.17;99798.44;153964;1095;103281;-76
2021/07/02 07:20:35;;;;;;;9.25;8.35;;;;;;;19.11;64.28;99792.39;154414;1101;103202;-79
2021/07/02 07:23:40;;;;;;;8.30;7.50;;;;;;;19.22;63.92;99801.65;154004;1101;103103;-79
2021/07/02 07:26:45;;;;;;;9.40;7.73;;;;;;;19.28;64.20;99789.94;154153;1101;103147;-79
2021/07/02 07:29:50;;;;;;;8.55;7.75;;;;;;;19.39;64.02;99777.58;154045;1096;103123;-79
2021/07/02 07:33:00;;;;;;;8.65;7.75;;;;;;;19.50;64.08;99776.03;154100;1095;103291;-79
2021/07/02 07:36:08;;;;;;;8.97;8.07;;;;;;;19.50;63.66;99776.03;154183;1095;103203;-77
2021/07/02 07:39:13;;;;;;;9.10;8.20;;;;;;;19.32;63.84;99776.80;154138;1096;103166;-77
2021/07/02 07:42:19;;;;;;;7.83;7.00;;;;;;;19.33;64.07;99771.17;154056;1101;103188;-78
2021/07/02 07:45:24;;;;;;;9.20;8.27;;;;;;;19.50;63.77;99779.55;154181;1096;103145;-80
2021/07/02 07:48:29;;;;;;;9.67;8.67;;;;;;;19.64;63.58;99790.25;154213;1101;103298;-79
2021/07/02 07:51:37;;;;;;;10.75;9.65;;;;;;;19.66;63.33;99780.02;155289;1101;103112;-78
2021/07/02 07:54:42;;;;;;;8.03;6.73;;;;;;;19.86;63.48;99780.67;154187;1095;103150;-79
2021/07/02 07:57:47;;;;;;;8.90;8.00;;;;;;;19.89;62.76;99791.03;154262;1097;103204;-79
2021/07/02 08:00:52;;;;;;;9.83;8.83;;;;;;;19.70;63.06;99782.05;153999;1101;103157;-73
2021/07/02 08:03:57;;;;;;;10.10;9.03;;;;;;;19.61;62.93;99784.23;154353;1101;103284;-75
2021/07/02 08:07:02;;;;;;;9.78;8.78;;;;;;;19.76;63.01;99783.88;154091;1096;103121;-73
2021/07/02 08:10:11;;;;;;;10.03;8.97;;;;;;;19.85;63.17;99784.42;153990;1095;103155;-74
2021/07/02 08:13:16;;;;;;;9.90;8.90;;;;;;;19.85;62.16;99778.19;154010;1101;103123;-79
2021/07/02 08:16:21;;;;;;;10.20;9.20;;;;;;;19.74;62.24;99791.39;153990;1101;103132;-75
2021/07/02 08:19:26;;;;;;;9.83;8.83;;;;;;;19.66;62.80;99782.73;154000;1101;103709;-76
2021/07/02 08:22:31;;;;;;;9.83;8.83;;;;;;;19.72;62.82;99784.56;154009;1095;103194;-75
2021/07/02 08:25:36;;;;;;;10.07;8.93;;;;;;;19.64;63.06;99792.95;153950;1101;103191;-72
2021/07/02 08:32:04;;;;;;;6.83;6.18;;;;;;;19.83;63.21;99797.36;154065;1101;103136;-72
2021/07/02 08:35:11;;;;;;;8.53;7.00;;;;;;;20.30;62.98;99796.80;154079;1101;103189;-76
2021/07/02 08:38:17;;;;;;;6.83;6.18;;;;;;;20.67;62.43;99796.73;154031;1096;103046;-73
2021/07/02 08:41:22;;;;;;;10.30;9.20;;;;;;;20.93;60.99;99811.80;154078;1095;103125;-72
2021/07/02 08:44:27;;;;;;;10.37;9.20;;;;;;;20.70;61.66;99802.53;154224;1101;103151;-71
2021/07/02 08:47:32;;;;;;;10.97;9.53;;;;;;;20.52;61.87;99810.70;154210;1101;103195;-70
2021/07/02 08:50:39;;;;;;;8.43;7.63;;;;;;;20.23;62.26;99817.72;153943;1097;103267;-71
2021/07/02 08:53:44;;;;;;;10.50;9.33;;;;;;;20.34;62.43;99819.66;154077;1101;103144;-70
2021/07/02 08:56:57;;;;;;;12.33;10.30;;;;;;;20.44;61.43;99819.13;153788;1101;103125;-72
2021/07/02 09:00:02;;;;;;;10.65;9.55;;;;;;;20.39;61.99;99823.34;153772;1101;103250;-71
2021/07/02 09:03:27;;;;;;;8.50;7.70;;;;;;;20.62;62.18;99821.02;154111;1101;103151;-72
2021/07/02 09:06:32;;;;;;;10.60;9.08;;;;;;;20.87;61.61;99829.00;154002;1096;103268;-70
2021/07/02 09:09:54;;;;;;;9.13;7.80;;;;;;;21.09;61.53;99835.52;153948;1101;103139;-71
2021/07/02 09:12:59;;;;;;;8.70;7.80;;;;;;;21.28;61.06;99830.84;154164;1096;103107;-72
2021/07/02 09:16:20;;;;;;;10.40;8.88;;;;;;;21.28;60.48;99836.27;153971;1101;103196;-72
2021/07/02 09:19:27;;;;;;;9.03;8.13;;;;;;;21.28;60.80;99835.45;153778;1097;103221;-71
2021/07/02 09:22:43;;;;;;;9.08;7.73;;;;;;;20.95;60.84;99842.22;153999;1096;103278;-71
2021/07/02 09:25:54;;;;;;;12.08;9.33;;;;;;;20.84;61.17;99832.98;154025;1101;103222;-71
2021/07/02 09:29:11;;;;;;;9.57;6.90;;;;;;;;;;153991;1101;103234;-74
2021/07/02 09:32:16;;;;;;;7.35;6.65;;;;;;;21.25;61.13;99825.91;154044;1101;103223;-71
2021/07/02 09:35:23;;;;;;;8.80;7.88;;;;;;;21.54;60.79;99813.32;153984;1101;103263;-72
2021/07/02 09:38:35;;;;;;;9.80;7.60;;;;;;;21.83;60.53;99807.99;154078;1097;103221;-78
2021/07/02 09:41:41;;;;;;;10.03;8.73;;;;;;;21.48;59.63;99816.14;154063;1101;103233;-76
2021/07/02 09:45:05;;;;;;;7.25;6.55;;;;;;;21.17;60.49;99813.50;153947;1101;103133;-73
2021/07/02 09:48:13;;;;;;;10.47;9.07;;;;;;;21.15;60.46;99814.78;153968;1096;103187;-71
2021/07/02 09:51:27;;;;;;;7.78;7.00;;;;;;;21.11;60.74;99819.88;153965;1096;103243;-70
2021/07/02 09:55:00;;;;;;;8.43;7.55;;;;;;;21.22;60.44;99810.08;153989;1101;103309;-72
2021/07/02 09:58:10;;;;;;;8.03;7.20;;;;;;;21.45;60.64;99820.16;154049;1101;103207;-71
2021/07/02 10:01:26;;;;;;;8.63;7.13;;;;;;;21.73;60.24;99815.92;153966;1101;103103;-71
2021/07/02 10:04:31;;;;;;;8.58;7.68;;;;;;;21.82;60.04;99819.09;153966;1097;103048;-75
2021/07/02 10:07:36;;;;;;;7.05;6.03;;;;;;;21.82;60.06;99817.19;153970;1101;103153;-71
2021/07/02 10:10:42;;;;;;;8.63;7.73;;;;;;;21.99;59.82;99816.47;153955;1101;103185;-71
2021/07/02 10:13:50;;;;;;;6.67;5.97;;;;;;;21.86;59.93;99817.55;154092;1095;103195;-71
2021/07/02 10:16:56;;;;;;;7.90;7.10;;;;;;;21.88;60.03;99823.56;154060;1101;103128;-73
2021/07/02 10:20:01;;;;;;;8.73;7.93;;;;;;;21.52;59.59;99829.02;153953;1101;103231;-71
2021/07/02 10:23:07;;;;;;;9.28;8.28;;;;;;;21.39;59.85;99831.92;153981;1101;103190;-71
2021/07/02 10:26:15;;;;;;;8.13;7.33;;;;;;;21.17;60.10;99824.36;154026;1101;103301;-71
2021/07/02 10:29:21;;;;;;;9.93;8.93;;;;;;;21.01;60.37;99825.02;154080;1096;103128;-72
2021/07/02 10:32:27;;;;;;;8.40;7.60;;;;;;;20.98;60.67;99825.50;153991;1101;103136;-73
2021/07/02 10:35:34;;;;;;;11.77;9.70;;;;;;;20.90;60.29;99823.09;154010;1101;103203;-71
2021/07/02 10:38:40;;;;;;;9.03;6.90;;;;;;;20.71;60.78;99825.06;153972;1095;103196;-77
2021/07/02 10:42:05;;;;;;;10.27;9.20;;;;;;;20.77;60.95;99824.95;153965;1095;103263;-73
2021/07/02 10:45:13;;;;;;;10.03;8.60;;;;;;;20.88;60.78;99827.92;154090;1096;103199;-73
2021/07/02 10:48:18;;;;;;;10.08;9.08;;;;;;;20.97;60.51;99835.50;154029;1094;103117;-72
2021/07/02 10:51:50;;;;;;;9.93;9.03;;;;;;;21.09;60.50;99834.70;153982;1101;103240;-72
2021/07/02 10:54:57;;;;;;;11.60;10.43;;;;;;;20.97;61.00;99834.68;154037;1101;103138;-71
2021/07/02 10:58:02;;;;;;;12.28;11.08;;;;;;;21.01;61.03;99833.16;154092;1095;103125;-72
2021/07/02 11:01:12;;;;;;;19.43;15.43;;;;;;;20.87;61.23;99839.84;154112;1101;103116;-71
2021/07/02 11:04:38;;;;;;;20.13;18.00;;;;;;;20.61;61.52;99857.30;153964;1095;103128;-71
2021/07/02 11:07:44;;;;;;;21.37;18.00;;;;;;;20.38;61.84;99848.81;153927;1101;103142;-70
2021/07/02 11:11:00;;;;;;;18.97;16.63;;;;;;;20.56;61.93;99847.13;153896;1101;103128;-71
2021/07/02 11:14:09;;;;;;;19.53;17.05;;;;;;;20.84;61.35;99834.88;153982;1101;103244;-73
2021/07/02 11:17:26;;;;;;;19.20;17.10;;;;;;;21.12;61.20;99832.36;154439;1101;103200;-73
2021/07/02 11:20:32;;;;;;;19.37;17.37;;;;;;;21.04;60.78;99851.69;154020;1101;103199;-73
2021/07/02 11:23:44;;;;;;;17.65;15.73;;;;;;;21.08;61.27;99844.73;154031;1101;103249;-76
2021/07/02 11:26:50;;;;;;;17.70;15.80;;;;;;;21.37;60.88;99836.77;154141;1101;103220;-72
2021/07/02 11:29:56;;;;;;;17.08;15.18;;;;;;;21.67;60.85;99844.00;154118;1096;103291;-74
2021/07/02 11:33:03;;;;;;;17.68;15.88;;;;;;;21.89;60.70;99846.95;154074;1101;103202;-71
2021/07/02 13:49:27;;;;;;;10.00;8.77;;;;;;;23.60;56.72;99769.05;154754;1095;103332;-81
2021/07/02 13:52:33;;;;;;;14.70;11.80;;;;;;;23.76;56.27;99767.36;154555;1096;103117;-78
2021/07/02 13:55:39;;;;;;;12.30;11.00;;;;;;;23.52;55.83;99764.05;154302;1101;103233;-79
2021/07/02 13:58:44;;;;;;;12.53;11.33;;;;;;;23.30;55.97;99763.98;156998;1101;103113;-77
2021/07/02 14:01:49;;;;;;;11.63;10.43;;;;;;;23.11;56.79;99760.69;154134;1101;103167;-75
2021/07/02 14:04:54;;;;;;;12.93;11.08;;;;;;;23.10;56.28;99762.59;153998;1101;103259;-74
2021/07/02 14:07:59;;;;;;;14.00;10.88;;;;;;;23.04;56.40;99760.05;154156;1101;103151;-76
2021/07/02 14:11:04;;;;;;;11.03;9.10;;;;;;;23.11;56.45;99753.38;154042;1101;103193;-77
2021/07/02 14:14:10;;;;;;;8.10;7.30;;;;;;;22.90;56.00;99752.19;154163;1097;103201;-77
2021/07/02 14:17:15;;;;;;;8.10;7.30;;;;;;;22.89;55.59;99761.41;154141;1101;103096;-78
2021/07/02 14:20:21;;;;;;;8.50;7.70;;;;;;;22.74;56.12;99759.23;154151;1101;103298;-77
2021/07/02 14:23:26;;;;;;;8.05;7.30;;;;;;;22.69;56.84;99766.48;154002;1101;103128;-78
2021/07/02 14:26:32;;;;;;;8.40;7.60;;;;;;;22.55;56.23;99755.91;154123;1101;103198;-76
2021/07/02 14:29:37;;;;;;;8.15;7.13;;;;;;;22.47;56.48;99752.78;154054;1101;103202;-77
2021/07/02 14:32:43;;;;;;;8.80;6.70;;;;;;;22.42;56.69;99758.11;153992;1101;103150;-76
2021/07/02 14:35:49;;;;;;;7.10;6.40;;;;;;;22.38;56.76;99749.61;153961;1096;103209;-77
2021/07/02 14:38:54;;;;;;;7.10;6.40;;;;;;;22.56;55.85;99748.59;153994;1095;103198;-80
2021/07/02 14:42:00;;;;;;;6.90;6.30;;;;;;;22.68;55.87;99746.63;153985;1101;103107;-79
2021/07/02 14:45:06;;;;;;;6.68;6.00;;;;;;;22.86;55.81;99739.30;154084;1101;103265;-82
2021/07/02 14:48:12;;;;;;;6.45;5.75;;;;;;;22.89;56.10;99746.98;154262;1101;103142;-82
2021/07/02 14:51:17;;;;;;;6.40;5.10;;;;;;;22.94;55.75;99736.16;154129;1096;103315;-80
2021/07/02 14:54:22;;;;;;;6.37;5.60;;;;;;;22.84;55.76;99749.61;154156;1095;103224;-81
2021/07/02 14:57:27;;;;;;;6.40;5.77;;;;;;;22.77;55.66;99760.66;154147;1101;103222;-83
2021/07/02 15:00:33;;;;;;;6.73;6.03;;;;;;;22.61;55.22;99759.55;154129;1101;103221;-85
2021/07/02 15:03:38;;;;;;;6.60;6.00;;;;;;;22.49;56.17;99750.64;154100;1101;103231;-80
2021/07/02 15:06:43;;;;;;;6.90;6.23;;;;;;;22.48;56.22;99754.41;154102;1096;103246;-80
2021/07/02 15:09:48;;;;;;;7.30;5.95;;;;;;;22.46;56.13;99754.67;154102;1101;103200;-80
2021/07/02 15:12:53;;;;;;;7.58;6.78;;;;;;;22.34;55.91;99738.42;154096;1101;103151;-80
2021/07/02 15:15:58;;;;;;;6.78;6.00;;;;;;;22.15;56.42;99745.06;154058;1096;103125;-81
2021/07/02 15:19:03;;;;;;;6.75;6.15;;;;;;;21.99;56.71;99764.86;154153;1095;103122;-82
2021/07/02 15:22:09;;;;;;;6.48;5.88;;;;;;;21.90;57.36;99757.09;154097;1101;103184;-80
2021/07/02 15:25:14;;;;;;;7.23;5.65;;;;;;;21.86;57.21;99755.89;154047;1096;103143;-79
2021/07/02 15:28:19;;;;;;;6.40;5.80;;;;;;;22.05;57.50;99742.97;154051;1101;103160;-82
2021/07/02 15:31:59;;;;;;;7.70;6.45;;;;;;;22.31;57.03;99735.36;154048;1101;103218;-83
2021/07/02 15:35:05;;;;;;;10.07;7.60;;;;;;;22.65;56.90;99740.84;154068;1101;103142;-81
2021/07/02 15:38:11;;;;;;;6.07;5.07;;;;;;;22.79;56.30;99736.76;154184;1101;103192;-82
2021/07/02 15:41:16;;;;;;;7.23;4.80;;;;;;;22.95;55.76;99743.27;154066;1096;103227;-80
2021/07/02 15:44:21;;;;;;;7.23;4.43;;;;;;;22.87;55.00;99746.41;154094;1101;103198;-81
2021/07/02 15:47:27;;;;;;;4.88;4.40;;;;;;;22.73;55.49;99735.84;154012;1096;103161;-79
2021/07/02 15:50:32;;;;;;;4.88;4.48;;;;;;;22.70;55.35;99741.77;154029;1096;103163;-78
2021/07/02 15:53:38;;;;;;;5.40;4.60;;;;;;;22.82;55.32;99738.15;153996;1101;103387;-79
2021/07/02 15:56:43;;;;;;;5.00;4.50;;;;;;;22.87;55.14;99740.97;154221;1101;103172;-82
2021/07/02 15:59:48;;;;;;;5.00;4.50;;;;;;;22.95;55.59;99735.11;154099;1094;103234;-81
2021/07/02 16:02:53;;;;;;;5.30;4.80;;;;;;;22.94;54.33;99750.61;154099;1095;103127;-81
2021/07/02 16:05:58;;;;;;;6.07;4.50;;;;;;;22.80;55.15;99738.39;154091;1101;103131;-80
2021/07/02 16:09:04;;;;;;;12.33;10.80;;;;;;;22.70;55.37;99739.05;154136;1096;103142;-80
2021/07/02 16:12:09;;;;;;;6.33;5.30;;;;;;;22.58;55.32;99735.58;154171;1101;103198;-80
2021/07/02 16:15:15;;;;;;;6.17;5.33;;;;;;;22.32;55.73;99735.09;154063;1101;103150;-77
2021/07/02 16:18:21;;;;;;;5.10;4.60;;;;;;;22.09;55.97;99748.75;154120;1101;103149;-77
2021/07/02 16:21:26;;;;;;;5.20;4.70;;;;;;;21.90;56.33;99748.09;153980;1101;103152;-78
2021/07/02 16:24:32;;;;;;;6.90;5.40;;;;;;;21.74;56.45;99744.23;153947;1097;103134;-76
2021/07/02 16:27:37;;;;;;;7.00;6.30;;;;;;;21.67;56.74;99751.68;154087;1096;103142;-77
2021/07/02 16:30:44;;;;;;;5.90;5.30;;;;;;;21.64;56.67;99750.28;153948;1101;103192;-78